Time;durP1;ratioP1;P1;durP2;ratioP2;P2;SDS_P1;SDS_P2;PMS_P1;PMS_P2;Temp;Humidity;BMP_temperature;BMP_pressure;BME280_temperature;BME280_humidity;BME280_pressure;Samples;Min_cycle;Max_cycle;Signal;HPM_P1;HPM_P2
2022/10/03 00:00:29;;;;;;;1.42;0.50;;;20.70;75.80;;;;;;5130359;27;45351;-71
2022/10/03 00:03:15;;;;;;;1.40;0.55;;;20.70;75.70;;;;;;5133368;27;45296;-71
2022/10/03 00:05:53;;;;;;;1.77;0.70;;;20.70;75.80;;;;;;5124778;27;45476;-72
2022/10/03 00:08:56;;;;;;;0.98;0.60;;;20.70;75.70;;;;;;5133914;27;46497;-71
2022/10/03 00:11:32;;;;;;;1.67;0.60;;;20.70;75.70;;;;;;5142663;27;45405;-72
2022/10/03 00:14:06;;;;;;;2.58;0.45;;;20.70;75.70;;;;;;5142833;27;45397;-72
2022/10/03 00:16:43;;;;;;;1.65;0.60;;;20.80;75.80;;;;;;5134845;27;45298;-71
2022/10/03 00:19:22;;;;;;;1.88;0.68;;;20.70;75.60;;;;;;5142160;27;47049;-71
2022/10/03 00:22:02;;;;;;;1.60;0.60;;;20.70;75.60;;;;;;5133696;27;45381;-72
2022/10/03 00:24:44;;;;;;;1.63;0.63;;;20.70;75.60;;;;;;5134246;27;45293;-71
2022/10/03 00:27:20;;;;;;;2.97;0.60;;;20.70;75.50;;;;;;5141346;27;45561;-72
2022/10/03 00:30:10;;;;;;;2.45;0.80;;;20.70;75.40;;;;;;5140731;27;48872;-71
2022/10/03 00:33:02;;;;;;;3.00;0.68;;;20.80;75.50;;;;;;5137293;27;45212;-71
2022/10/03 00:35:55;;;;;;;1.00;0.50;;;20.70;75.40;;;;;;5143871;27;45282;-72
2022/10/03 00:38:53;;;;;;;1.75;0.65;;;20.70;75.20;;;;;;5144699;27;45304;-71
2022/10/03 00:41:47;;;;;;;2.00;0.80;;;20.70;75.20;;;;;;5144568;27;47000;-71
2022/10/03 00:44:49;;;;;;;1.90;0.47;;;20.70;75.20;;;;;;5138915;27;45512;-71
2022/10/03 00:47:30;;;;;;;1.60;0.60;;;20.70;75.20;;;;;;5128796;27;45323;-72
2022/10/03 00:50:10;;;;;;;1.45;0.55;;;20.70;75.10;;;;;;5127316;27;45299;-71
2022/10/03 00:52:53;;;;;;;1.02;0.70;;;20.70;75.00;;;;;;5127513;27;46484;-71
2022/10/03 00:55:30;;;;;;;0.50;0.45;;;20.70;75.20;;;;;;5145799;27;45363;-72
2022/10/03 00:58:21;;;;;;;2.15;0.70;;;20.70;75.00;;;;;;5146605;27;45347;-72
2022/10/03 01:00:51;;;;;;;2.30;0.60;;;20.70;75.00;;;;;;5145016;27;45410;-71
2022/10/03 01:03:41;;;;;;;3.67;1.00;;;20.70;75.10;;;;;;5146040;27;47422;-71
2022/10/03 01:06:20;;;;;;;1.27;0.70;;;20.70;75.00;;;;;;5136045;27;45216;-71
2022/10/03 01:09:06;;;;;;;2.58;0.80;;;20.70;75.10;;;;;;5141587;27;45318;-72
2022/10/03 01:11:52;;;;;;;0.90;0.50;;;20.70;75.10;;;;;;5133050;27;45299;-72
2022/10/03 01:14:32;;;;;;;2.10;0.80;;;20.70;75.10;;;;;;5141029;27;46559;-71
2022/10/03 01:17:11;;;;;;;3.80;0.70;;;20.70;75.20;;;;;;5132925;27;45608;-72
2022/10/03 01:20:14;;;;;;;2.55;0.70;;;20.70;75.00;;;;;;5144968;27;45324;-72
2022/10/03 01:23:22;;;;;;;1.13;0.52;;;20.70;75.10;;;;;;5145775;27;45398;-73
2022/10/03 01:25:55;;;;;;;2.17;0.50;;;20.70;75.00;;;;;;5141557;27;46335;-72
2022/10/03 01:31:34;;;;;;;2.22;0.47;;;20.70;74.90;;;;;;5135715;27;45413;-72
2022/10/03 01:34:07;;;;;;;2.67;0.77;;;20.70;74.90;;;;;;5143742;27;45463;-72
2022/10/03 01:36:41;;;;;;;1.40;0.50;;;20.70;74.80;;;;;;5132795;27;47161;-72
2022/10/03 01:39:17;;;;;;;0.93;0.57;;;20.70;74.90;;;;;;5136873;27;45268;-72
2022/10/03 01:41:52;;;;;;;0.98;0.60;;;20.70;74.90;;;;;;5140192;27;45510;-72
2022/10/03 01:44:24;;;;;;;3.00;0.90;;;20.70;74.70;;;;;;5145435;27;45397;-73
2022/10/03 01:46:54;;;;;;;1.25;0.43;;;20.70;74.70;;;;;;5145957;27;45750;-72
2022/10/03 01:49:28;;;;;;;3.08;0.80;;;20.70;74.70;;;;;;5133332;27;45318;-72
2022/10/03 01:52:03;;;;;;;3.40;0.80;;;20.70;74.70;;;;;;5146273;27;45642;-72
2022/10/03 01:54:36;;;;;;;2.28;0.75;;;20.70;74.70;;;;;;5137498;27;45472;-72
2022/10/03 01:57:16;;;;;;;1.13;0.50;;;20.70;74.70;;;;;;5139681;27;46258;-72
2022/10/03 01:59:50;;;;;;;1.42;0.57;;;20.70;74.60;;;;;;5144835;27;45926;-72
2022/10/03 02:02:25;;;;;;;2.80;0.80;;;20.70;74.80;;;;;;5134395;27;45311;-72
2022/10/03 02:05:00;;;;;;;1.73;0.50;;;20.70;74.70;;;;;;5137724;27;45522;-72
2022/10/03 02:07:34;;;;;;;1.30;0.60;;;20.70;74.70;;;;;;5137073;27;45547;-72
2022/10/03 02:10:08;;;;;;;1.45;0.50;;;20.70;74.70;;;;;;5145560;27;45409;-71
2022/10/03 02:12:40;;;;;;;1.83;0.63;;;20.70;74.60;;;;;;5141825;27;45472;-72
2022/10/03 02:15:19;;;;;;;0.63;0.52;;;20.70;74.60;;;;;;5137752;27;45400;-72
2022/10/03 02:17:54;;;;;;;0.85;0.52;;;20.70;74.60;;;;;;5138300;27;46063;-72
2022/10/03 02:20:28;;;;;;;1.35;0.68;;;20.70;74.50;;;;;;5144670;27;45648;-72
2022/10/03 02:22:57;;;;;;;1.50;0.70;;;20.70;74.40;;;;;;5141421;27;45421;-70
2022/10/03 02:25:29;;;;;;;0.85;0.55;;;20.70;74.40;;;;;;5145943;27;45421;-73
2022/10/03 02:28:22;;;;;;;1.40;0.60;;;20.70;74.40;;;;;;5140687;27;46387;-71
2022/10/03 02:31:34;;;;;;;2.92;0.82;;;20.70;74.30;;;;;;5139247;27;45758;-72
2022/10/03 02:34:27;;;;;;;1.75;0.70;;;20.70;74.30;;;;;;5068011;28;45337;-72
2022/10/03 02:37:24;;;;;;;1.10;0.60;;;20.70;74.30;;;;;;5063508;28;45495;-72
2022/10/03 02:40:28;;;;;;;2.92;0.68;;;20.70;74.20;;;;;;5125863;27;48003;-72
2022/10/03 02:43:31;;;;;;;3.03;0.57;;;20.70;74.20;;;;;;5137172;27;45369;-72
2022/10/03 02:46:37;;;;;;;1.33;0.65;;;20.70;74.10;;;;;;5139278;27;45369;-72
2022/10/03 02:49:38;;;;;;;0.45;0.45;;;20.70;74.00;;;;;;5139399;27;45300;-72
2022/10/03 02:52:28;;;;;;;3.17;0.98;;;20.70;74.10;;;;;;5111266;27;46563;-72
2022/10/03 02:55:23;;;;;;;1.23;0.70;;;20.70;74.20;;;;;;5134220;27;45858;-72
2022/10/03 02:58:14;;;;;;;2.13;0.70;;;20.70;74.20;;;;;;5132358;27;45399;-73
2022/10/03 03:01:12;;;;;;;1.02;0.50;;;20.70;74.30;;;;;;5136985;27;45254;-72
2022/10/03 03:04:06;;;;;;;1.48;0.70;;;20.70;74.20;;;;;;5136611;27;47890;-72
2022/10/03 03:07:04;;;;;;;0.73;0.50;;;20.70;74.20;;;;;;5129407;27;45483;-72
2022/10/03 03:10:06;;;;;;;1.17;0.68;;;20.60;74.20;;;;;;5133871;27;45288;-72
2022/10/03 03:13:11;;;;;;;1.92;0.60;;;20.70;74.10;;;;;;5138256;27;45494;-72
2022/10/03 03:16:17;;;;;;;1.05;0.60;;;20.70;74.10;;;;;;5134598;27;46090;-71
2022/10/03 03:18:53;;;;;;;1.58;0.73;;;20.70;74.00;;;;;;5137733;27;45307;-72
2022/10/03 03:21:28;;;;;;;0.95;0.57;;;20.70;73.90;;;;;;5135453;27;45269;-72
2022/10/03 03:24:13;;;;;;;1.15;0.68;;;20.70;73.80;;;;;;5141461;27;45509;-72
2022/10/03 03:27:16;;;;;;;1.95;0.70;;;20.70;73.90;;;;;;5136307;27;45470;-73
2022/10/03 03:29:50;;;;;;;1.27;0.50;;;20.60;73.90;;;;;;5131794;27;45392;-72
2022/10/03 03:32:27;;;;;;;1.67;0.60;;;20.60;73.90;;;;;;5140469;27;45432;-72
2022/10/03 03:35:05;;;;;;;0.82;0.70;;;20.70;74.00;;;;;;5139596;27;45335;-72
2022/10/03 03:37:40;;;;;;;0.77;0.55;;;20.70;75.00;;;;;;5127176;27;48791;-72
2022/10/03 03:40:28;;;;;;;2.53;0.80;;;20.70;74.00;;;;;;5141888;27;45298;-72
2022/10/03 03:43:16;;;;;;;1.73;0.57;;;20.70;74.00;;;;;;5140270;27;45217;-72
2022/10/03 03:45:55;;;;;;;0.95;0.60;;;20.70;74.00;;;;;;5135290;27;45369;-72
2022/10/03 03:48:39;;;;;;;3.75;0.90;;;20.60;73.90;;;;;;5143054;27;47102;-72
2022/10/03 03:51:21;;;;;;;1.50;0.68;;;20.70;74.00;;;;;;5139596;27;45379;-72
2022/10/03 03:54:25;;;;;;;0.60;0.50;;;20.60;74.00;;;;;;5135104;27;45392;-72
2022/10/03 03:57:25;;;;;;;0.52;0.50;;;20.60;73.90;;;;;;5137190;27;45735;-73
2022/10/03 04:00:07;;;;;;;1.40;0.60;;;20.60;73.80;;;;;;5129080;27;45562;-72
2022/10/03 04:02:47;;;;;;;1.52;0.70;;;20.60;73.90;;;;;;5136273;27;45985;-72
2022/10/03 04:05:26;;;;;;;0.98;0.50;;;20.60;73.90;;;;;;5141626;27;45271;-72
2022/10/03 04:08:11;;;;;;;1.10;0.65;;;20.60;73.80;;;;;;5143762;27;45273;-72
2022/10/03 04:10:53;;;;;;;1.95;0.70;;;20.60;73.90;;;;;;5144409;27;45404;-72
2022/10/03 04:13:47;;;;;;;1.33;0.70;;;20.70;73.90;;;;;;5140338;27;45414;-72
2022/10/03 04:19:32;;;;;;;1.38;0.52;;;20.70;73.80;;;;;;5147779;27;45492;-72
2022/10/03 04:22:14;;;;;;;1.15;0.60;;;20.70;73.70;;;;;;5140475;27;46319;-72
2022/10/03 04:25:09;;;;;;;3.33;0.60;;;20.70;73.60;;;;;;5140004;27;45876;-72
2022/10/03 04:28:09;;;;;;;2.15;0.60;;;20.70;73.60;;;;;;5123073;27;45454;-72
2022/10/03 04:30:50;;;;;;;1.65;0.40;;;20.70;73.60;;;;;;5127598;27;45557;-72
2022/10/03 04:33:29;;;;;;;2.13;0.75;;;20.70;73.60;;;;;;5151716;27;47800;-72
2022/10/03 04:36:38;;;;;;;0.80;0.55;;;20.70;73.50;;;;;;5140879;27;45464;-72
2022/10/03 04:39:12;;;;;;;1.65;0.60;;;20.70;73.40;;;;;;5143809;27;45323;-72
2022/10/03 04:41:50;;;;;;;1.92;0.88;;;20.70;73.50;;;;;;5140544;27;45342;-73
2022/10/03 04:44:32;;;;;;;1.33;0.60;;;20.70;73.40;;;;;;5145239;27;46385;-73
2022/10/03 04:47:06;;;;;;;1.20;0.47;;;20.70;73.40;;;;;;5127646;27;45386;-72
2022/10/03 04:49:39;;;;;;;1.65;0.60;;;20.70;73.40;;;;;;5133766;27;45548;-72
2022/10/03 04:52:18;;;;;;;1.08;0.70;;;20.70;73.30;;;;;;5143944;27;45405;-72
2022/10/03 04:54:54;;;;;;;1.55;0.70;;;20.60;73.20;;;;;;5135200;27;46640;-72
2022/10/03 04:57:30;;;;;;;1.65;0.60;;;20.70;73.30;;;;;;5143270;27;45737;-72
2022/10/03 05:00:07;;;;;;;0.60;0.50;;;20.60;73.30;;;;;;5145041;27;45281;-72
2022/10/03 05:02:45;;;;;;;1.58;0.90;;;20.70;73.50;;;;;;5139495;27;45334;-72
2022/10/03 05:05:35;;;;;;;1.45;0.60;;;20.60;73.30;;;;;;5147486;27;47047;-73
2022/10/03 05:08:14;;;;;;;1.38;0.40;;;20.60;73.40;;;;;;5142882;27;45973;-72
2022/10/03 05:10:54;;;;;;;1.23;0.60;;;20.70;73.40;;;;;;5142077;27;45311;-72
2022/10/03 05:13:43;;;;;;;1.35;0.65;;;20.60;73.30;;;;;;5146059;27;45764;-72
2022/10/03 05:16:20;;;;;;;1.02;0.63;;;20.70;73.30;;;;;;5144562;27;47127;-72
2022/10/03 05:18:53;;;;;;;1.80;0.70;;;20.70;73.30;;;;;;5146093;27;45275;-72
2022/10/03 05:21:31;;;;;;;1.50;0.57;;;20.70;73.20;;;;;;5143620;27;45307;-72
2022/10/03 05:24:07;;;;;;;1.17;0.65;;;20.70;73.10;;;;;;5147183;27;45255;-72
2022/10/03 05:26:44;;;;;;;0.90;0.57;;;20.70;73.10;;;;;;5138604;27;46366;-72
2022/10/03 05:29:18;;;;;;;2.80;0.70;;;20.70;73.10;;;;;;5142560;27;45444;-72
2022/10/03 05:31:53;;;;;;;1.45;0.90;;;20.70;73.10;;;;;;5140129;27;45298;-72
2022/10/03 05:34:29;;;;;;;1.02;0.63;;;20.70;73.00;;;;;;5141557;27;45288;-72
2022/10/03 05:37:20;;;;;;;1.15;0.60;;;20.70;73.00;;;;;;5140993;27;46145;-72
2022/10/03 05:39:57;;;;;;;0.73;0.60;;;20.70;72.90;;;;;;5130802;27;45460;-72
2022/10/03 05:42:41;;;;;;;1.98;0.65;;;20.70;72.90;;;;;;5146005;27;45299;-72
2022/10/03 05:45:23;;;;;;;1.95;0.60;;;20.70;73.00;;;;;;5144032;27;45234;-73
2022/10/03 05:47:55;;;;;;;1.42;0.60;;;20.70;73.00;;;;;;5146147;27;47277;-72
2022/10/03 05:50:58;;;;;;;1.58;0.65;;;20.70;73.00;;;;;;5144299;27;45375;-72
2022/10/03 05:53:51;;;;;;;2.45;0.75;;;20.60;72.80;;;;;;5140093;27;45470;-72
2022/10/03 05:56:34;;;;;;;1.35;0.43;;;20.70;72.90;;;;;;5144102;27;45362;-72
2022/10/03 05:59:35;;;;;;;0.98;0.63;;;20.70;72.90;;;;;;5144357;27;46230;-72
2022/10/03 06:02:32;;;;;;;2.38;0.93;;;20.70;72.90;;;;;;5098085;27;45455;-72
2022/10/03 06:05:29;;;;;;;1.88;0.70;;;20.70;72.90;;;;;;5071070;27;45494;-72
2022/10/03 06:08:25;;;;;;;1.20;0.40;;;20.70;73.00;;;;;;5132433;27;45367;-72
2022/10/03 06:11:02;;;;;;;2.55;0.90;;;20.70;73.00;;;;;;5142587;27;47533;-72
2022/10/03 06:13:46;;;;;;;1.60;0.65;;;20.70;72.90;;;;;;5133939;27;45245;-72
2022/10/03 06:16:36;;;;;;;1.17;0.60;;;20.70;72.90;;;;;;5136809;27;45276;-71
2022/10/03 06:19:19;;;;;;;1.73;0.60;;;20.70;72.80;;;;;;5141790;27;45522;-72
2022/10/03 06:22:23;;;;;;;1.30;0.60;;;20.70;72.80;;;;;;5124931;27;46985;-71
2022/10/03 06:25:23;;;;;;;1.20;0.77;;;20.70;72.90;;;;;;5139783;27;45701;-71
2022/10/03 06:28:23;;;;;;;0.90;0.80;;;20.70;72.90;;;;;;5134816;27;45497;-72
2022/10/03 06:31:14;;;;;;;2.15;0.60;;;20.70;72.90;;;;;;5145094;27;45527;-71
2022/10/03 06:34:30;;;;;;;1.67;0.80;;;20.70;73.00;;;;;;5102725;27;46558;-72
2022/10/03 06:37:22;;;;;;;1.60;0.80;;;20.70;72.90;;;;;;5136799;27;45947;-72
2022/10/03 06:40:19;;;;;;;2.95;0.80;;;20.70;72.90;;;;;;5139539;27;45505;-73
2022/10/03 06:43:30;;;;;;;2.25;0.80;;;20.70;72.90;;;;;;5139490;27;45619;-72
2022/10/03 06:46:38;;;;;;;1.50;0.73;;;20.70;72.80;;;;;;5134738;27;47729;-72
2022/10/03 06:49:39;;;;;;;1.73;0.70;;;20.70;72.90;;;;;;5141188;27;45337;-72
2022/10/03 06:52:30;;;;;;;1.70;0.88;;;20.70;72.90;;;;;;5145582;27;45399;-72
2022/10/03 06:55:46;;;;;;;1.42;0.70;;;20.60;72.90;;;;;;5135198;27;45504;-72
2022/10/03 06:58:42;;;;;;;2.03;0.60;;;20.60;73.00;;;;;;5137516;27;47546;-71
2022/10/03 07:01:35;;;;;;;2.55;0.70;;;20.60;73.00;;;;;;5140406;27;45248;-72
2022/10/03 07:04:22;;;;;;;2.70;0.70;;;20.60;73.10;;;;;;5140602;27;45812;-72
2022/10/03 07:07:18;;;;;;;0.75;0.60;;;20.60;73.10;;;;;;5133131;27;45490;-72
2022/10/03 07:10:06;;;;;;;2.50;0.70;;;20.60;73.10;;;;;;5132949;27;46414;-72
2022/10/03 07:12:54;;;;;;;1.77;0.82;;;20.60;73.10;;;;;;5132415;27;45519;-73
2022/10/03 07:15:42;;;;;;;1.42;0.60;;;20.70;73.10;;;;;;5138404;27;45467;-72
2022/10/03 07:18:40;;;;;;;2.65;1.00;;;20.70;73.10;;;;;;5144412;27;45339;-73
2022/10/03 07:21:53;;;;;;;2.35;0.80;;;20.70;73.10;;;;;;5143663;27;45414;-72
2022/10/03 07:24:43;;;;;;;1.00;0.73;;;20.70;73.20;;;;;;5107367;27;45580;-72
2022/10/03 07:27:39;;;;;;;2.30;0.93;;;20.60;73.20;;;;;;5140797;27;45495;-72
2022/10/03 07:30:13;;;;;;;1.63;0.70;;;20.70;73.20;;;;;;5130682;27;45294;-72
2022/10/03 07:33:22;;;;;;;1.77;0.80;;;20.70;73.30;;;;;;5132389;27;46550;-71
2022/10/03 07:39:50;;;;;;;1.42;0.77;;;20.60;73.10;;;;;;5138892;27;45439;-72
2022/10/03 07:42:40;;;;;;;2.92;0.82;;;20.60;73.20;;;;;;5122336;27;45522;-72
2022/10/03 07:45:29;;;;;;;2.50;0.85;;;20.60;73.10;;;;;;5140041;27;46928;-72
2022/10/03 07:48:41;;;;;;;2.45;0.85;;;20.60;73.30;;;;;;5124054;27;45352;-72
2022/10/03 07:51:14;;;;;;;0.90;0.65;;;20.60;73.30;;;;;;5134949;27;45517;-73
2022/10/03 07:54:14;;;;;;;1.50;0.80;;;20.70;73.30;;;;;;5137821;27;45461;-72
2022/10/03 07:57:08;;;;;;;1.42;0.75;;;20.60;73.30;;;;;;5135626;27;45324;-72
2022/10/03 08:00:11;;;;;;;1.67;0.80;;;20.60;73.30;;;;;;5141766;27;45379;-71
2022/10/03 08:03:19;;;;;;;2.33;0.93;;;20.60;73.30;;;;;;5090663;27;45705;-72
2022/10/03 08:05:59;;;;;;;1.05;0.85;;;20.70;73.20;;;;;;5070343;27;45643;-73
2022/10/03 08:08:54;;;;;;;3.08;1.10;;;20.70;73.30;;;;;;5137603;27;47157;-73
2022/10/03 08:11:48;;;;;;;1.67;0.70;;;20.70;73.50;;;;;;5143967;27;45285;-72
2022/10/03 08:14:21;;;;;;;1.52;0.60;;;20.70;73.60;;;;;;5132617;27;45572;-72
2022/10/03 08:17:21;;;;;;;1.83;0.90;;;20.70;73.60;;;;;;5135516;27;45497;-72
2022/10/03 08:20:18;;;;;;;1.05;0.57;;;20.70;73.60;;;;;;5128401;27;46545;-73
2022/10/03 08:22:59;;;;;;;2.15;0.50;;;20.70;73.70;;;;;;5134829;27;45379;-73
2022/10/03 08:25:33;;;;;;;3.40;0.90;;;20.70;73.90;;;;;;5137241;27;45386;-73
2022/10/03 08:28:25;;;;;;;3.45;1.00;;;20.70;74.00;;;;;;5130905;27;45458;-73
2022/10/03 08:31:15;;;;;;;1.45;0.70;;;20.70;74.00;;;;;;5133694;27;46080;-71
2022/10/03 08:33:55;;;;;;;1.77;0.80;;;20.70;74.00;;;;;;5139602;27;45409;-72
2022/10/03 08:37:04;;;;;;;2.88;1.00;;;20.70;73.90;;;;;;5147913;27;45384;-72
2022/10/03 08:39:46;;;;;;;2.78;0.85;;;20.70;73.80;;;;;;5142582;27;45425;-72
2022/10/03 08:42:45;;;;;;;1.88;0.80;;;20.70;73.80;;;;;;5127015;27;46272;-72
2022/10/03 08:45:56;;;;;;;3.75;0.70;;;20.70;73.70;;;;;;5125089;27;45407;-73
2022/10/03 08:48:54;;;;;;;2.60;0.90;;;20.70;73.70;;;;;;5094505;27;45242;-73
2022/10/03 08:52:06;;;;;;;2.05;0.73;;;20.70;73.80;;;;;;5126532;27;45259;-72
2022/10/03 08:54:50;;;;;;;1.33;0.63;;;20.70;73.70;;;;;;5126691;27;45302;-73
2022/10/03 08:57:54;;;;;;;4.22;1.20;;;20.70;73.70;;;;;;5125444;27;45345;-72
2022/10/03 09:00:22;;;;;;;1.30;0.68;;;20.70;73.70;;;;;;5125745;27;45399;-72
2022/10/03 09:03:31;;;;;;;2.38;0.60;;;20.70;73.70;;;;;;5125216;27;45357;-72
2022/10/03 09:06:34;;;;;;;1.58;0.50;;;20.70;73.70;;;;;;5125297;27;45649;-73
2022/10/03 09:09:27;;;;;;;2.92;0.88;;;20.70;73.80;;;;;;5126091;27;45287;-73
2022/10/03 09:12:34;;;;;;;0.75;0.63;;;20.70;73.70;;;;;;5126394;27;45364;-73
2022/10/03 09:15:36;;;;;;;2.28;0.70;;;20.70;73.80;;;;;;5126899;27;45477;-72
2022/10/03 09:18:41;;;;;;;1.25;0.50;;;20.70;73.80;;;;;;5050891;28;46338;-73
2022/10/03 09:21:38;;;;;;;2.63;0.80;;;20.70;73.90;;;;;;5062294;28;45241;-73
2022/10/03 09:24:47;;;;;;;1.55;0.70;;;20.70;73.90;;;;;;5125594;27;45371;-73
2022/10/03 09:27:37;;;;;;;0.75;0.38;;;20.70;73.90;;;;;;5126520;27;45404;-72
2022/10/03 09:30:24;;;;;;;1.65;0.70;;;20.80;74.00;;;;;;5121981;27;45245;-72
2022/10/03 09:33:19;;;;;;;1.17;0.50;;;20.70;74.00;;;;;;5141585;27;45297;-73
2022/10/03 09:35:59;;;;;;;1.95;0.68;;;20.70;74.00;;;;;;5146288;27;45406;-72
2022/10/03 09:38:56;;;;;;;0.75;0.50;;;20.70;74.10;;;;;;5143436;27;45472;-72
2022/10/03 09:41:43;;;;;;;0.85;0.38;;;20.70;74.10;;;;;;5146529;27;47087;-72
2022/10/03 09:44:44;;;;;;;2.15;0.60;;;20.70;74.10;;;;;;5146559;27;45256;-72
2022/10/03 09:47:57;;;;;;;1.67;0.70;;;20.70;74.10;;;;;;5146276;27;45373;-72
2022/10/03 09:50:54;;;;;;;1.92;0.77;;;20.70;74.10;;;;;;5108198;27;45522;-72
2022/10/03 09:53:58;;;;;;;1.70;0.60;;;20.70;74.00;;;;;;5116229;27;46434;-72
2022/10/03 09:56:58;;;;;;;1.25;0.80;;;20.70;73.80;;;;;;5146280;27;45370;-72
2022/10/03 09:59:41;;;;;;;1.40;0.70;;;20.70;73.50;;;;;;5126088;27;45344;-71
2022/10/03 10:02:32;;;;;;;1.85;0.55;;;20.80;73.40;;;;;;5146156;27;45314;-72
2022/10/03 10:05:30;;;;;;;2.92;0.60;;;20.70;73.30;;;;;;5145616;27;47124;-72
2022/10/03 10:08:30;;;;;;;1.10;0.50;;;20.80;73.20;;;;;;5124979;27;45433;-73
2022/10/03 10:11:21;;;;;;;2.08;0.65;;;20.80;73.10;;;;;;5125613;27;45355;-72
2022/10/03 10:14:27;;;;;;;1.80;0.50;;;20.80;72.80;;;;;;5115233;27;45287;-72
2022/10/03 10:17:27;;;;;;;3.17;0.80;;;20.80;73.70;;;;;;5125265;27;47636;-71
2022/10/03 10:20:10;;;;;;;3.95;0.63;;;20.80;72.50;;;;;;5074900;27;45426;-72
2022/10/03 10:23:09;;;;;;;2.72;0.52;;;20.90;72.60;;;;;;5133471;27;45490;-72
2022/10/03 10:25:58;;;;;;;2.28;0.80;;;20.90;72.80;;;;;;5146551;27;45315;-72
2022/10/03 10:29:06;;;;;;;2.80;0.60;;;20.90;72.90;;;;;;5144990;27;45329;-71
2022/10/03 10:32:09;;;;;;;2.05;0.60;;;20.90;73.00;;;;;;5145344;27;45375;-72
2022/10/03 10:35:14;;;;;;;0.73;0.50;;;20.90;73.10;;;;;;5145632;27;45312;-72
2022/10/03 10:38:26;;;;;;;1.40;0.60;;;20.90;73.30;;;;;;5145668;27;45294;-72
2022/10/03 10:41:32;;;;;;;1.33;0.40;;;20.90;73.40;;;;;;5105525;27;46622;-71
2022/10/03 10:44:33;;;;;;;1.38;0.60;;;20.90;73.40;;;;;;5145261;27;45400;-72
2022/10/03 10:47:12;;;;;;;1.23;0.50;;;20.90;73.50;;;;;;5142602;27;45287;-72
2022/10/03 10:50:19;;;;;;;1.50;0.50;;;20.90;73.60;;;;;;5143691;27;45326;-72
2022/10/03 10:53:38;;;;;;;1.80;0.50;;;20.90;73.60;;;;;;5145637;27;45427;-71
2022/10/03 10:56:43;;;;;;;1.48;0.50;;;20.90;73.70;;;;;;5143663;27;45374;-72
2022/10/03 10:59:46;;;;;;;1.02;0.47;;;20.90;73.60;;;;;;5142247;27;45374;-72
2022/10/03 11:02:49;;;;;;;1.08;0.60;;;20.90;73.60;;;;;;5142686;27;45423;-72
2022/10/03 11:05:48;;;;;;;1.17;0.50;;;20.90;73.70;;;;;;5092136;27;47318;-72
2022/10/03 11:08:55;;;;;;;1.75;0.50;;;20.90;73.70;;;;;;5099391;27;45396;-72
2022/10/03 11:12:12;;;;;;;0.70;0.43;;;20.90;73.70;;;;;;5145122;27;45378;-72
2022/10/03 11:15:46;;;;;;;0.82;0.50;;;20.90;73.80;;;;;;5130840;27;45609;-72
2022/10/03 11:19:02;;;;;;;0.65;0.40;;;20.90;73.70;;;;;;5042094;28;45454;-72
2022/10/03 11:22:25;;;;;;;1.33;0.40;;;20.90;73.80;;;;;;5060952;27;45344;-72
2022/10/03 11:25:29;;;;;;;0.50;0.40;;;20.90;73.80;;;;;;5040342;28;45434;-71
2022/10/03 11:28:47;;;;;;;0.60;0.43;;;20.90;73.80;;;;;;5143684;27;45549;-72
2022/10/03 11:31:58;;;;;;;0.32;0.30;;;20.90;73.80;;;;;;5059657;28;46605;-72
2022/10/03 11:34:56;;;;;;;1.88;0.35;;;20.90;75.00;;;;;;4999865;28;45359;-71
2022/10/03 11:37:35;;;;;;;1.65;0.40;;;20.90;74.00;;;;;;5145130;27;45331;-72
2022/10/03 11:40:31;;;;;;;0.85;0.38;;;20.90;74.00;;;;;;5144027;27;45201;-72
2022/10/03 11:43:46;;;;;;;0.75;0.50;;;20.90;74.00;;;;;;5144869;27;48310;-72
2022/10/03 11:46:31;;;;;;;0.98;0.35;;;20.90;74.10;;;;;;5144224;27;46173;-72
2022/10/03 11:49:06;;;;;;;1.30;0.40;;;20.90;74.10;;;;;;5125866;27;45428;-72
2022/10/03 11:51:41;;;;;;;1.33;0.50;;;20.90;73.90;;;;;;5123514;27;45308;-72
2022/10/03 11:54:18;;;;;;;0.82;0.35;;;20.90;74.00;;;;;;5123552;27;46562;-72
2022/10/03 11:56:47;;;;;;;0.65;0.40;;;20.90;73.90;;;;;;5120383;27;45386;-72
2022/10/03 11:59:37;;;;;;;1.05;0.40;;;20.90;73.70;;;;;;5123321;27;45431;-72
2022/10/03 12:02:14;;;;;;;2.13;0.70;;;20.90;73.80;;;;;;5122913;27;45704;-72
2022/10/03 12:04:58;;;;;;;1.25;0.32;;;20.90;73.80;;;;;;5129793;27;46421;-72
2022/10/03 12:10:38;;;;;;;1.30;0.30;;;20.90;73.80;;;;;;5147211;27;45276;-72
2022/10/03 12:13:13;;;;;;;0.73;0.30;;;20.90;73.70;;;;;;5144727;27;45363;-71
2022/10/03 12:15:43;;;;;;;1.23;0.50;;;20.90;73.80;;;;;;5144562;27;47460;-72
2022/10/03 12:18:16;;;;;;;0.80;0.40;;;20.90;73.80;;;;;;5142752;27;45241;-72
2022/10/03 12:21:05;;;;;;;0.20;0.20;;;20.90;73.70;;;;;;5123028;27;45524;-72
2022/10/03 12:23:51;;;;;;;1.02;0.32;;;20.90;73.80;;;;;;5132134;27;45353;-73
2022/10/03 12:26:27;;;;;;;0.90;0.22;;;20.90;73.90;;;;;;5144368;27;47408;-72
2022/10/03 12:28:56;;;;;;;0.57;0.40;;;20.90;73.80;;;;;;5143434;27;45742;-72
2022/10/03 12:31:29;;;;;;;1.58;0.30;;;20.90;73.90;;;;;;5143998;27;45319;-72
2022/10/03 12:34:11;;;;;;;0.85;0.50;;;20.90;73.80;;;;;;5144261;27;45346;-72
2022/10/03 12:36:50;;;;;;;1.02;0.30;;;20.90;74.00;;;;;;5143429;27;48108;-72
2022/10/03 12:39:29;;;;;;;0.88;0.40;;;20.90;74.00;;;;;;5135760;27;45288;-72
2022/10/03 12:42:13;;;;;;;0.63;0.30;;;20.90;74.10;;;;;;5126767;27;45307;-71
2022/10/03 12:44:50;;;;;;;0.68;0.38;;;20.90;74.00;;;;;;5126851;27;45405;-72
2022/10/03 12:47:32;;;;;;;0.70;0.40;;;20.90;74.00;;;;;;5126256;27;47976;-72
2022/10/03 12:50:10;;;;;;;0.73;0.40;;;20.90;75.00;;;;;;5125783;27;45318;-72
2022/10/03 12:52:45;;;;;;;0.73;0.30;;;20.90;74.00;;;;;;5126294;27;45261;-72
2022/10/03 12:55:25;;;;;;;1.05;0.30;;;20.90;73.80;;;;;;5127185;27;45300;-72
2022/10/03 12:58:00;;;;;;;0.50;0.20;;;20.90;73.80;;;;;;5126153;27;47501;-72
2022/10/03 13:00:33;;;;;;;0.50;0.20;;;20.90;73.90;;;;;;5124607;27;45331;-72
2022/10/03 13:03:19;;;;;;;1.27;0.40;;;20.90;73.80;;;;;;5124511;27;45375;-73
2022/10/03 13:06:15;;;;;;;0.52;0.20;;;20.90;73.70;;;;;;5125933;27;45647;-72
2022/10/03 13:08:53;;;;;;;0.52;0.32;;;20.90;73.90;;;;;;5125422;27;46412;-72
2022/10/03 13:11:32;;;;;;;0.30;0.22;;;20.90;73.80;;;;;;5126278;27;45391;-72
2022/10/03 13:14:10;;;;;;;1.17;0.40;;;20.90;73.80;;;;;;5143425;27;45425;-72
2022/10/03 13:16:46;;;;;;;0.55;0.30;;;20.90;73.70;;;;;;5146642;27;45430;-72
2022/10/03 13:19:17;;;;;;;0.82;0.38;;;20.90;73.80;;;;;;5135757;27;47970;-72
2022/10/03 13:22:02;;;;;;;1.10;0.40;;;20.90;73.80;;;;;;5125835;27;45279;-72
2022/10/03 13:24:35;;;;;;;0.35;0.20;;;20.90;73.80;;;;;;5126353;27;45345;-72
2022/10/03 13:27:17;;;;;;;0.98;0.30;;;20.90;73.90;;;;;;5126275;27;45276;-72
2022/10/03 13:29:48;;;;;;;0.52;0.30;;;20.90;74.00;;;;;;5125739;27;46641;-72
2022/10/03 13:32:25;;;;;;;1.48;0.20;;;20.80;73.90;;;;;;5125906;27;45377;-71
2022/10/03 13:38:17;;;;;;;1.25;0.43;;;20.80;73.80;;;;;;5122860;27;45326;-72
2022/10/03 13:40:51;;;;;;;1.33;0.30;;;20.80;73.80;;;;;;5125096;27;46368;-72
2022/10/03 13:43:24;;;;;;;0.65;0.35;;;20.80;73.70;;;;;;5125638;27;46089;-72
2022/10/03 13:45:55;;;;;;;0.75;0.30;;;20.80;73.80;;;;;;5122760;27;45406;-71
2022/10/03 13:48:25;;;;;;;0.50;0.40;;;20.80;73.70;;;;;;5145849;27;45236;-72
2022/10/03 13:51:00;;;;;;;0.17;0.10;;;20.80;73.60;;;;;;5145184;27;47290;-71
2022/10/03 13:53:45;;;;;;;0.80;0.40;;;20.80;73.70;;;;;;5146352;27;45321;-71
2022/10/03 13:56:16;;;;;;;0.60;0.38;;;20.80;73.60;;;;;;5146770;27;45376;-72
2022/10/03 13:58:52;;;;;;;1.08;0.30;;;20.80;73.60;;;;;;5145754;27;45350;-72
2022/10/03 14:01:33;;;;;;;0.68;0.30;;;20.80;73.70;;;;;;5144355;27;48008;-72
2022/10/03 14:04:28;;;;;;;0.40;0.20;;;20.80;73.60;;;;;;5144857;27;45384;-72
2022/10/03 14:07:01;;;;;;;0.82;0.40;;;20.80;73.60;;;;;;5146075;27;45303;-72
2022/10/03 14:09:41;;;;;;;0.17;0.13;;;20.80;73.60;;;;;;5145212;27;45697;-72
2022/10/03 14:12:21;;;;;;;0.82;0.30;;;20.80;73.60;;;;;;5144923;27;46781;-72
2022/10/03 14:15:17;;;;;;;0.28;0.20;;;20.80;73.70;;;;;;5141357;27;45508;-72
2022/10/03 14:17:53;;;;;;;0.13;0.13;;;20.80;73.60;;;;;;5146354;27;45569;-72
2022/10/03 14:20:26;;;;;;;1.35;0.28;;;20.80;73.60;;;;;;5127640;27;45515;-72
2022/10/03 14:23:17;;;;;;;0.60;0.25;;;20.80;73.60;;;;;;5145277;27;48593;-71
2022/10/03 14:25:51;;;;;;;0.35;0.28;;;20.80;73.60;;;;;;5146350;27;45277;-72
2022/10/03 14:28:25;;;;;;;1.05;0.22;;;20.80;73.60;;;;;;5146271;27;45289;-71
2022/10/03 14:31:03;;;;;;;0.43;0.32;;;20.80;73.60;;;;;;5145690;27;45270;-72
2022/10/03 14:33:37;;;;;;;0.30;0.20;;;20.80;73.60;;;;;;5145285;27;46275;-71
2022/10/03 14:36:23;;;;;;;0.90;0.20;;;20.80;73.70;;;;;;5145274;27;45310;-72
2022/10/03 14:39:13;;;;;;;0.57;0.15;;;20.80;73.60;;;;;;5126397;27;45657;-72
2022/10/03 14:42:26;;;;;;;0.43;0.20;;;20.80;73.70;;;;;;5124663;27;45340;-72
2022/10/03 14:44:55;;;;;;;0.90;0.30;;;20.80;73.70;;;;;;5124405;27;47068;-72
2022/10/03 14:47:22;;;;;;;0.75;0.30;;;20.80;73.80;;;;;;5124688;27;45305;-72
2022/10/03 14:49:53;;;;;;;0.65;0.28;;;20.80;73.70;;;;;;5127187;27;45457;-72